Station Historical Data
Daily Summary for March 1, 2018 Units:  English    Metric   Both
« Previous Day
Next Day »
Daily Weekly Monthly Yearly Custom
  High: Low: Average:
Temperature: 40.3 °F 31.4 °F 35.6 °F
Dew Point: 34.3 °F 28.8 °F 31.2 °F
Humidity: 90% 76% 84%
Wind Speed: 19.0mph 1.0mph 6.6mph
Wind Gust: 26.0mph - -
Wind- - NE
Pressure: 29.96 in 29.65 in -
Precipitation: 0.00 in    
Historical Graphs
 
 
Tabular Data for March 1, 2018
Time Temperature Dew Point Pressure Wind Wind Speed Wind Gust Humidity Rainfall Rate (Hourly)
00:04 40.3 °F 34.3 °F 29.91 in NNE 2.0 mph 5.0 mph 79% 0.00 in
00:09 40.0 °F 34.0 °F 29.91 in North 2.0 mph 5.0 mph 79% 0.00 in
00:19 39.2 °F 33.5 °F 29.91 in North 3.0 mph 7.0 mph 80% 0.00 in
00:24 38.8 °F 33.2 °F 29.91 in North 3.0 mph 7.0 mph 80% 0.00 in
00:29 38.5 °F 33.2 °F 29.91 in North 3.0 mph 7.0 mph 81% 0.00 in
00:34 38.1 °F 32.8 °F 29.91 in North 3.0 mph 7.0 mph 81% 0.00 in
00:39 37.7 °F 32.7 °F 29.91 in NNE 5.0 mph 8.0 mph 82% 0.00 in
00:44 37.3 °F 32.3 °F 29.91 in NNW 7.0 mph 7.0 mph 82% 0.00 in
00:49 37.0 °F 32.3 °F 29.91 in NNE 4.0 mph 7.0 mph 83% 0.00 in
00:54 36.7 °F 32.0 °F 29.91 in NNE 3.0 mph 8.0 mph 83% 0.00 in
00:59 36.4 °F 32.0 °F 29.92 in North 3.0 mph 8.0 mph 84% 0.00 in
01:04 36.2 °F 32.1 °F 29.92 in NNE 4.0 mph 8.0 mph 85% 0.00 in
01:14 36.2 °F 32.1 °F 29.92 in NNE 2.0 mph 7.0 mph 85% 0.00 in
01:19 36.2 °F 32.4 °F 29.92 in North 4.0 mph 7.0 mph 86% 0.00 in
01:24 36.2 °F 32.4 °F 29.92 in North 3.0 mph 7.0 mph 86% 0.00 in
01:29 36.3 °F 32.5 °F 29.93 in NNE 3.0 mph 6.0 mph 86% 0.00 in
01:34 36.1 °F 32.3 °F 29.93 in NE 3.0 mph 9.0 mph 86% 0.00 in
01:39 36.1 °F 32.6 °F 29.93 in NE 4.0 mph 9.0 mph 87% 0.00 in
01:44 36.0 °F 32.5 °F 29.93 in NE 4.0 mph 7.0 mph 87% 0.00 in
01:54 36.1 °F 32.6 °F 29.94 in NE 3.0 mph 4.0 mph 87% 0.00 in
01:59 36.1 °F 32.6 °F 29.94 in NE 2.0 mph 6.0 mph 87% 0.00 in
02:04 36.0 °F 32.5 °F 29.93 in NNE 3.0 mph 6.0 mph 87% 0.00 in
02:09 36.1 °F 32.6 °F 29.94 in NNE 3.0 mph 6.0 mph 87% 0.00 in
02:14 36.1 °F 32.6 °F 29.93 in NNE 3.0 mph 5.0 mph 87% 0.00 in
02:19 36.0 °F 32.5 °F 29.94 in NE 2.0 mph 7.0 mph 87% 0.00 in
02:24 36.0 °F 32.8 °F 29.93 in NE 3.0 mph 5.0 mph 88% 0.00 in
02:29 36.0 °F 32.8 °F 29.93 in NE 1.0 mph 4.0 mph 88% 0.00 in
02:34 36.0 °F 32.8 °F 29.93 in NE 2.0 mph 5.0 mph 88% 0.00 in
02:44 36.0 °F 32.8 °F 29.92 in NNE 3.0 mph 6.0 mph 88% 0.00 in
02:49 36.1 °F 32.9 °F 29.93 in NE 4.0 mph 6.0 mph 88% 0.00 in
02:54 36.1 °F 32.9 °F 29.92 in ENE 4.0 mph 9.0 mph 88% 0.00 in
02:59 36.0 °F 32.8 °F 29.92 in NE 4.0 mph 9.0 mph 88% 0.00 in
03:09 36.1 °F 32.9 °F 29.92 in NNE 4.0 mph 7.0 mph 88% 0.00 in
03:14 36.1 °F 32.9 °F 29.92 in NE 4.0 mph 10.0 mph 88% 0.00 in
03:19 36.0 °F 32.5 °F 29.92 in NNE 4.0 mph 10.0 mph 87% 0.00 in
03:24 35.9 °F 32.4 °F 29.92 in NNE 3.0 mph 6.0 mph 87% 0.00 in
03:29 35.9 °F 32.4 °F 29.92 in North 3.0 mph 5.0 mph 87% 0.00 in
03:34 35.9 °F 32.4 °F 29.92 in NNE 3.0 mph 8.0 mph 87% 0.00 in
03:39 35.8 °F 32.3 °F 29.92 in NE 4.0 mph 7.0 mph 87% 0.00 in
03:44 35.9 °F 32.4 °F 29.92 in NNE 4.0 mph 7.0 mph 87% 0.00 in
03:49 35.9 °F 32.4 °F 29.92 in NNE 3.0 mph 7.0 mph 87% 0.00 in
03:54 35.8 °F 32.3 °F 29.92 in North 2.0 mph 5.0 mph 87% 0.00 in
03:59 35.8 °F 32.3 °F 29.92 in NNE 2.0 mph 5.0 mph 87% 0.00 in
04:09 35.8 °F 32.3 °F 29.92 in NNE 2.0 mph 4.0 mph 87% 0.00 in
04:14 35.8 °F 32.3 °F 29.92 in NE 3.0 mph 6.0 mph 87% 0.00 in
04:19 35.8 °F 32.3 °F 29.93 in NNE 3.0 mph 6.0 mph 87% 0.00 in
04:24 35.8 °F 32.3 °F 29.94 in NE 3.0 mph 6.0 mph 87% 0.00 in
04:29 35.8 °F 32.3 °F 29.94 in NE 2.0 mph 3.0 mph 87% 0.00 in
04:34 35.8 °F 32.0 °F 29.94 in NNE 1.0 mph 5.0 mph 86% 0.00 in
04:39 35.8 °F 32.3 °F 29.94 in NNE 2.0 mph 3.0 mph 87% 0.00 in
04:44 35.8 °F 32.0 °F 29.94 in NE 1.0 mph 6.0 mph 86% 0.00 in
04:54 35.7 °F 31.9 °F 29.93 in NE 4.0 mph 7.0 mph 86% 0.00 in
04:59 35.7 °F 31.9 °F 29.94 in NE 3.0 mph 7.0 mph 86% 0.00 in
05:04 35.7 °F 31.9 °F 29.95 in NE 2.0 mph 5.0 mph 86% 0.00 in
05:09 35.7 °F 31.9 °F 29.95 in NE 2.0 mph 4.0 mph 86% 0.00 in
05:14 35.7 °F 31.9 °F 29.96 in NNE 2.0 mph 4.0 mph 86% 0.00 in
05:19 35.6 °F 31.8 °F 29.94 in NNE 3.0 mph 5.0 mph 86% 0.00 in
05:24 35.6 °F 31.8 °F 29.94 in NNE 3.0 mph 5.0 mph 86% 0.00 in
05:34 35.6 °F 31.8 °F 29.93 in NE 4.0 mph 6.0 mph 86% 0.00 in
05:39 35.5 °F 31.7 °F 29.93 in NNE 4.0 mph 8.0 mph 86% 0.00 in
05:44 35.5 °F 32.0 °F 29.93 in NE 4.0 mph 11.0 mph 87% 0.00 in
05:54 35.4 °F 31.9 °F 29.91 in NE 4.0 mph 12.0 mph 87% 0.00 in
05:59 35.4 °F 31.9 °F 29.92 in NE 5.0 mph 12.0 mph 87% 0.00 in
06:04 35.4 °F 31.9 °F 29.92 in NE 6.0 mph 7.0 mph 87% 0.00 in
06:14 35.4 °F 31.9 °F 29.93 in NE 1.0 mph 7.0 mph 87% 0.00 in
06:19 35.4 °F 31.9 °F 29.93 in ENE 4.0 mph 9.0 mph 87% 0.00 in
06:24 35.4 °F 31.9 °F 29.93 in NE 5.0 mph 10.0 mph 87% 0.00 in
06:29 35.4 °F 31.9 °F 29.93 in NE 5.0 mph 10.0 mph 87% 0.00 in
06:39 35.5 °F 32.3 °F 29.93 in NE 5.0 mph 14.0 mph 88% 0.00 in
06:44 35.6 °F 32.4 °F 29.93 in NE 6.0 mph 9.0 mph 88% 0.00 in
06:49 35.7 °F 32.5 °F 29.93 in East 8.0 mph 9.0 mph 88% 0.00 in
06:54 35.7 °F 32.5 °F 29.93 in NE 5.0 mph 11.0 mph 88% 0.00 in
06:59 35.6 °F 32.4 °F 29.93 in ENE 6.0 mph 11.0 mph 88% 0.00 in
07:09 35.8 °F 32.6 °F 29.92 in ENE 4.0 mph 11.0 mph 88% 0.00 in
07:14 35.9 °F 32.4 °F 29.92 in ENE 3.0 mph 11.0 mph 87% 0.00 in
07:19 35.8 °F 32.3 °F 29.92 in ENE 5.0 mph 11.0 mph 87% 0.00 in
07:24 35.9 °F 32.4 °F 29.92 in ESE 4.0 mph 10.0 mph 87% 0.00 in
07:29 35.9 °F 32.4 °F 29.91 in ENE 5.0 mph 10.0 mph 87% 0.00 in
07:34 35.9 °F 32.4 °F 29.92 in ENE 5.0 mph 12.0 mph 87% 0.00 in
07:39 35.9 °F 32.4 °F 29.92 in ENE 5.0 mph 12.0 mph 87% 0.00 in
07:44 35.9 °F 32.4 °F 29.91 in ENE 6.0 mph 12.0 mph 87% 0.00 in
07:54 36.1 °F 32.6 °F 29.91 in NE 5.0 mph 13.0 mph 87% 0.00 in
07:59 36.1 °F 32.6 °F 29.91 in NE 6.0 mph 13.0 mph 87% 0.00 in
08:04 36.1 °F 32.6 °F 29.92 in NE 7.0 mph 14.0 mph 87% 0.00 in
08:09 36.1 °F 32.6 °F 29.93 in NE 7.0 mph 16.0 mph 87% 0.00 in
08:19 36.2 °F 32.4 °F 29.94 in ENE 5.0 mph 11.0 mph 86% 0.00 in
08:24 36.2 °F 32.4 °F 29.93 in East 5.0 mph 13.0 mph 86% 0.00 in
08:34 36.4 °F 32.6 °F 29.93 in ENE 4.0 mph 9.0 mph 86% 0.00 in
08:44 36.4 °F 32.6 °F 29.92 in NE 5.0 mph 12.0 mph 86% 0.00 in
08:49 36.4 °F 32.3 °F 29.94 in NE 5.0 mph 13.0 mph 85% 0.00 in
08:54 36.4 °F 32.3 °F 29.94 in NE 9.0 mph 10.0 mph 85% 0.00 in
09:04 36.3 °F 32.2 °F 29.93 in NE 7.0 mph 14.0 mph 85% 0.00 in
09:09 36.3 °F 32.2 °F 29.94 in NE 6.0 mph 13.0 mph 85% 0.00 in
09:14 36.4 °F 32.0 °F 29.94 in NE 6.0 mph 12.0 mph 84% 0.00 in
09:19 36.3 °F 31.9 °F 29.93 in ENE 5.0 mph 10.0 mph 84% 0.00 in
09:24 36.4 °F 32.0 °F 29.93 in NE 9.0 mph 11.0 mph 84% 0.00 in
09:29 36.6 °F 32.2 °F 29.93 in NE 8.0 mph 11.0 mph 84% 0.00 in
09:34 36.5 °F 32.1 °F 29.93 in NE 6.0 mph 11.0 mph 84% 0.00 in
09:39 36.4 °F 32.0 °F 29.93 in NE 6.0 mph 11.0 mph 84% 0.00 in
09:44 36.5 °F 32.1 °F 29.94 in NE 5.0 mph 11.0 mph 84% 0.00 in
09:49 36.4 °F 32.0 °F 29.94 in NNE 7.0 mph 11.0 mph 84% 0.00 in
09:54 36.4 °F 32.0 °F 29.93 in NE 6.0 mph 13.0 mph 84% 0.00 in
09:59 36.3 °F 31.9 °F 29.93 in ENE 5.0 mph 12.0 mph 84% 0.00 in
10:04 36.4 °F 32.0 °F 29.93 in ENE 5.0 mph 11.0 mph 84% 0.00 in
10:09 36.2 °F 31.8 °F 29.92 in NE 6.0 mph 12.0 mph 84% 0.00 in
10:14 36.2 °F 31.8 °F 29.92 in NE 7.0 mph 13.0 mph 84% 0.00 in
10:19 36.2 °F 31.8 °F 29.91 in NE 7.0 mph 14.0 mph 84% 0.00 in
10:24 36.2 °F 31.8 °F 29.91 in NE 8.0 mph 13.0 mph 84% 0.00 in
10:29 36.3 °F 31.9 °F 29.91 in ENE 10.0 mph 12.0 mph 84% 0.00 in
10:34 36.4 °F 32.0 °F 29.91 in NE 3.0 mph 13.0 mph 84% 0.00 in
10:39 36.5 °F 32.1 °F 29.91 in ENE 6.0 mph 13.0 mph 84% 0.00 in
10:44 36.5 °F 32.1 °F 29.91 in NE 6.0 mph 14.0 mph 84% 0.00 in
10:49 36.5 °F 32.1 °F 29.90 in NE 6.0 mph 14.0 mph 84% 0.00 in
10:54 36.4 °F 32.0 °F 29.90 in NE 7.0 mph 13.0 mph 84% 0.00 in
10:59 36.5 °F 32.1 °F 29.90 in NE 3.0 mph 11.0 mph 84% 0.00 in
11:04 36.6 °F 32.2 °F 29.90 in NE 4.0 mph 10.0 mph 84% 0.00 in
11:09 36.7 °F 32.3 °F 29.90 in ENE 7.0 mph 13.0 mph 84% 0.00 in
11:14 36.7 °F 32.3 °F 29.90 in NE 6.0 mph 13.0 mph 84% 0.00 in
11:19 36.8 °F 32.4 °F 29.90 in NE 4.0 mph 13.0 mph 84% 0.00 in
11:24 36.8 °F 32.4 °F 29.90 in ENE 5.0 mph 13.0 mph 84% 0.00 in
11:29 36.6 °F 31.9 °F 29.90 in NE 6.0 mph 12.0 mph 83% 0.00 in
11:34 36.6 °F 31.9 °F 29.89 in ENE 11.0 mph 16.0 mph 83% 0.00 in
11:39 36.6 °F 31.9 °F 29.89 in ENE 9.0 mph 16.0 mph 83% 0.00 in
11:44 36.8 °F 32.4 °F 29.89 in NE 8.0 mph 16.0 mph 84% 0.00 in
11:49 37.0 °F 32.3 °F 29.88 in NE 8.0 mph 14.0 mph 83% 0.00 in
11:54 36.8 °F 32.1 °F 29.89 in NE 9.0 mph 19.0 mph 83% 0.00 in
11:59 36.8 °F 32.1 °F 29.89 in NE 6.0 mph 15.0 mph 83% 0.00 in
12:04 36.8 °F 31.8 °F 29.89 in ENE 4.0 mph 16.0 mph 82% 0.00 in
12:09 36.6 °F 31.6 °F 29.90 in ENE 8.0 mph 18.0 mph 82% 0.00 in
12:14 36.7 °F 31.7 °F 29.90 in NNE 8.0 mph 16.0 mph 82% 0.00 in
12:19 36.6 °F 31.6 °F 29.89 in NE 14.0 mph 17.0 mph 82% 0.00 in
12:24 36.6 °F 31.6 °F 29.88 in NE 8.0 mph 17.0 mph 82% 0.00 in
12:29 36.8 °F 31.8 °F 29.88 in NE 9.0 mph 16.0 mph 82% 0.00 in
12:34 36.9 °F 31.9 °F 29.88 in NE 4.0 mph 20.0 mph 82% 0.00 in
12:39 36.8 °F 31.5 °F 29.88 in NE 9.0 mph 20.0 mph 81% 0.00 in
12:44 36.7 °F 31.4 °F 29.87 in NE 9.0 mph 18.0 mph 81% 0.00 in
12:49 36.8 °F 31.5 °F 29.86 in NE 8.0 mph 16.0 mph 81% 0.00 in
12:54 37.0 °F 31.7 °F 29.85 in ENE 12.0 mph 17.0 mph 81% 0.00 in
12:59 37.1 °F 31.8 °F 29.84 in NE 8.0 mph 24.0 mph 81% 0.00 in
13:04 37.2 °F 31.6 °F 29.84 in NE 11.0 mph 24.0 mph 80% 0.00 in
13:09 37.5 °F 32.2 °F 29.84 in NE 10.0 mph 23.0 mph 81% 0.00 in
13:14 37.7 °F 32.4 °F 29.84 in ENE 8.0 mph 18.0 mph 81% 0.00 in
13:19 37.7 °F 32.1 °F 29.83 in NE 7.0 mph 13.0 mph 80% 0.00 in
13:24 37.7 °F 32.1 °F 29.83 in NE 9.0 mph 13.0 mph 80% 0.00 in
13:29 37.6 °F 32.0 °F 29.84 in East 5.0 mph 18.0 mph 80% 0.00 in
13:34 37.5 °F 31.9 °F 29.83 in ENE 6.0 mph 18.0 mph 80% 0.00 in
13:39 37.5 °F 31.9 °F 29.83 in NE 7.0 mph 10.0 mph 80% 0.00 in
13:44 37.3 °F 31.4 °F 29.83 in NNE 8.0 mph 18.0 mph 79% 0.00 in
13:49 37.5 °F 31.6 °F 29.82 in NNE 8.0 mph 14.0 mph 79% 0.00 in
13:54 37.5 °F 31.6 °F 29.82 in NNE 7.0 mph 17.0 mph 79% 0.00 in
13:59 37.6 °F 31.4 °F 29.82 in NE 9.0 mph 16.0 mph 78% 0.00 in
14:04 37.8 °F 31.6 °F 29.82 in ENE 4.0 mph 14.0 mph 78% 0.00 in
14:09 37.7 °F 31.5 °F 29.81 in ENE 8.0 mph 15.0 mph 78% 0.00 in
14:14 37.7 °F 31.5 °F 29.81 in ENE 8.0 mph 18.0 mph 78% 0.00 in
14:19 37.8 °F 31.6 °F 29.81 in ENE 7.0 mph 18.0 mph 78% 0.00 in
14:24 37.8 °F 31.2 °F 29.81 in ENE 7.0 mph 14.0 mph 77% 0.00 in
14:29 37.7 °F 31.1 °F 29.80 in ENE 7.0 mph 16.0 mph 77% 0.00 in
14:34 37.9 °F 31.3 °F 29.80 in ENE 4.0 mph 13.0 mph 77% 0.00 in
14:39 37.7 °F 31.1 °F 29.80 in ENE 4.0 mph 16.0 mph 77% 0.00 in
14:44 37.5 °F 30.9 °F 29.80 in ENE 6.0 mph 16.0 mph 77% 0.00 in
14:49 37.3 °F 30.4 °F 29.80 in ENE 7.0 mph 15.0 mph 76% 0.00 in
14:54 37.2 °F 30.3 °F 29.79 in SSE 7.0 mph 15.0 mph 76% 0.00 in
14:59 37.2 °F 30.7 °F 29.79 in NE 4.0 mph 15.0 mph 77% 0.00 in
15:04 37.3 °F 30.7 °F 29.79 in ENE 6.0 mph 15.0 mph 77% 0.00 in
15:14 37.1 °F 30.6 °F 29.78 in NE 5.0 mph 13.0 mph 77% 0.00 in
15:19 37.0 °F 30.5 °F 29.78 in NE 9.0 mph 19.0 mph 77% 0.00 in
15:24 36.8 °F 30.3 °F 29.78 in NE 10.0 mph 19.0 mph 77% 0.00 in
15:29 36.8 °F 30.3 °F 29.77 in ENE 9.0 mph 17.0 mph 77% 0.00 in
15:34 36.8 °F 30.3 °F 29.77 in NE 9.0 mph 16.0 mph 77% 0.00 in
15:39 36.7 °F 30.2 °F 29.77 in NE 9.0 mph 18.0 mph 77% 0.00 in
15:44 36.5 °F 30.0 °F 29.77 in NE 14.0 mph 20.0 mph 77% 0.00 in
15:49 36.4 °F 30.2 °F 29.77 in NE 10.0 mph 19.0 mph 78% 0.00 in
15:54 36.4 °F 30.2 °F 29.77 in NE 10.0 mph 19.0 mph 78% 0.00 in
15:59 36.5 °F 30.3 °F 29.77 in NE 9.0 mph 17.0 mph 78% 0.00 in
16:04 36.5 °F 30.3 °F 29.77 in NE 9.0 mph 17.0 mph 78% 0.00 in
16:09 36.4 °F 30.2 °F 29.77 in NE 9.0 mph 17.0 mph 78% 0.00 in
16:14 36.4 °F 30.2 °F 29.77 in NE 9.0 mph 18.0 mph 78% 0.00 in
16:19 36.3 °F 30.1 °F 29.77 in NE 9.0 mph 18.0 mph 78% 0.00 in
16:24 36.2 °F 30.0 °F 29.76 in ENE 8.0 mph 18.0 mph 78% 0.00 in
16:29 36.2 °F 30.0 °F 29.76 in NE 8.0 mph 17.0 mph 78% 0.00 in
16:39 36.1 °F 29.9 °F 29.76 in NE 9.0 mph 18.0 mph 78% 0.00 in
16:44 36.0 °F 29.8 °F 29.76 in NE 7.0 mph 16.0 mph 78% 0.00 in
16:49 36.1 °F 29.9 °F 29.76 in East 6.0 mph 13.0 mph 78% 0.00 in
16:54 36.0 °F 29.8 °F 29.76 in East 6.0 mph 16.0 mph 78% 0.00 in
16:59 36.1 °F 30.2 °F 29.76 in NE 6.0 mph 16.0 mph 79% 0.00 in
17:04 36.0 °F 30.1 °F 29.75 in NE 7.0 mph 17.0 mph 79% 0.00 in
17:09 35.9 °F 30.0 °F 29.75 in NE 8.0 mph 17.0 mph 79% 0.00 in
17:14 35.8 °F 29.9 °F 29.75 in NE 8.0 mph 21.0 mph 79% 0.00 in
17:19 35.7 °F 29.8 °F 29.75 in NE 9.0 mph 21.0 mph 79% 0.00 in
17:24 35.7 °F 29.8 °F 29.75 in NE 7.0 mph 13.0 mph 79% 0.00 in
17:29 35.7 °F 29.8 °F 29.75 in NE 3.0 mph 17.0 mph 79% 0.00 in
17:34 35.7 °F 29.8 °F 29.75 in East 6.0 mph 15.0 mph 79% 0.00 in
17:39 35.7 °F 29.8 °F 29.75 in NE 6.0 mph 12.0 mph 79% 0.00 in
17:44 35.6 °F 30.0 °F 29.75 in NE 8.0 mph 19.0 mph 80% 0.00 in
17:49 35.5 °F 29.9 °F 29.74 in ENE 12.0 mph 16.0 mph 80% 0.00 in
17:54 35.5 °F 29.9 °F 29.74 in NE 9.0 mph 15.0 mph 80% 0.00 in
17:59 35.4 °F 29.8 °F 29.74 in NE 7.0 mph 14.0 mph 80% 0.00 in
18:04 35.3 °F 29.7 °F 29.73 in NE 6.0 mph 17.0 mph 80% 0.00 in
18:09 35.2 °F 30.0 °F 29.73 in NE 8.0 mph 17.0 mph 81% 0.00 in
18:14 35.1 °F 29.9 °F 29.73 in NE 9.0 mph 19.0 mph 81% 0.00 in
18:19 35.1 °F 29.9 °F 29.73 in NE 10.0 mph 21.0 mph 81% 0.00 in
18:24 35.2 °F 30.0 °F 29.73 in NE 9.0 mph 21.0 mph 81% 0.00 in
18:29 35.1 °F 30.2 °F 29.73 in NE 9.0 mph 18.0 mph 82% 0.00 in
18:34 35.1 °F 30.2 °F 29.72 in NE 9.0 mph 16.0 mph 82% 0.00 in
18:39 35.2 °F 30.0 °F 29.72 in NNE 3.0 mph 16.0 mph 81% 0.00 in
18:44 35.3 °F 30.1 °F 29.71 in NE 10.0 mph 20.0 mph 81% 0.00 in
18:49 35.4 °F 30.1 °F 29.71 in NE 10.0 mph 20.0 mph 81% 0.00 in
18:54 35.4 °F 29.8 °F 29.71 in ENE 14.0 mph 16.0 mph 80% 0.00 in
18:59 35.5 °F 29.9 °F 29.70 in NNE 10.0 mph 18.0 mph 80% 0.00 in
19:04 35.6 °F 30.0 °F 29.70 in NE 8.0 mph 20.0 mph 80% 0.00 in
19:09 35.6 °F 30.0 °F 29.69 in NE 7.0 mph 19.0 mph 80% 0.00 in
19:14 35.6 °F 29.7 °F 29.69 in ENE 11.0 mph 21.0 mph 79% 0.00 in
19:19 35.5 °F 29.9 °F 29.69 in NE 10.0 mph 21.0 mph 80% 0.00 in
19:24 35.4 °F 29.8 °F 29.69 in NE 10.0 mph 18.0 mph 80% 0.00 in
19:29 35.2 °F 29.6 °F 29.69 in NE 9.0 mph 18.0 mph 80% 0.00 in
19:34 35.0 °F 29.8 °F 29.68 in NE 9.0 mph 18.0 mph 81% 0.00 in
19:39 34.8 °F 29.9 °F 29.68 in NE 11.0 mph 22.0 mph 82% 0.00 in
19:44 34.6 °F 29.7 °F 29.68 in NE 11.0 mph 22.0 mph 82% 0.00 in
19:49 34.4 °F 29.8 °F 29.67 in NE 8.0 mph 20.0 mph 83% 0.00 in
19:54 34.3 °F 29.7 °F 29.67 in NE 11.0 mph 20.0 mph 83% 0.00 in
19:59 34.1 °F 29.8 °F 29.67 in ENE 10.0 mph 18.0 mph 84% 0.00 in
20:04 34.0 °F 30.0 °F 29.67 in NE 9.0 mph 20.0 mph 85% 0.00 in
20:09 33.8 °F 29.8 °F 29.67 in NE 9.0 mph 20.0 mph 85% 0.00 in
20:14 33.8 °F 29.8 °F 29.67 in NE 10.0 mph 19.0 mph 85% 0.00 in
20:19 33.7 °F 29.7 °F 29.67 in ENE 19.0 mph 21.0 mph 85% 0.00 in
20:24 33.7 °F 30.0 °F 29.67 in NNE 14.0 mph 22.0 mph 86% 0.00 in
20:29 33.7 °F 30.0 °F 29.67 in NE 11.0 mph 22.0 mph 86% 0.00 in
20:34 33.6 °F 29.9 °F 29.67 in NE 9.0 mph 21.0 mph 86% 0.00 in
20:39 33.7 °F 30.0 °F 29.67 in NE 8.0 mph 23.0 mph 86% 0.00 in
20:44 33.7 °F 30.0 °F 29.67 in NE 16.0 mph 21.0 mph 86% 0.00 in
20:49 33.8 °F 30.1 °F 29.67 in ENE 14.0 mph 23.0 mph 86% 0.00 in
20:54 33.7 °F 30.0 °F 29.67 in ENE 11.0 mph 20.0 mph 86% 0.00 in
20:59 33.5 °F 29.8 °F 29.67 in NE 6.0 mph 21.0 mph 86% 0.00 in
21:04 33.4 °F 29.7 °F 29.67 in NE 10.0 mph 21.0 mph 86% 0.00 in
21:09 33.3 °F 29.8 °F 29.67 in NE 10.0 mph 20.0 mph 87% 0.00 in
21:14 33.3 °F 29.8 °F 29.66 in NE 10.0 mph 21.0 mph 87% 0.00 in
21:19 33.2 °F 29.8 °F 29.67 in NE 11.0 mph 26.0 mph 87% 0.00 in
21:24 33.0 °F 29.6 °F 29.67 in NE 10.0 mph 26.0 mph 87% 0.00 in
21:29 33.0 °F 29.8 °F 29.67 in NE 7.0 mph 15.0 mph 88% 0.00 in
21:34 32.8 °F 29.6 °F 29.67 in NE 8.0 mph 25.0 mph 88% 0.00 in
21:39 32.8 °F 29.6 °F 29.66 in NE 9.0 mph 25.0 mph 88% 0.00 in
21:44 32.7 °F 29.5 °F 29.66 in NE 10.0 mph 15.0 mph 88% 0.00 in
21:49 32.6 °F 29.4 °F 29.66 in NE 7.0 mph 14.0 mph 88% 0.00 in
21:54 32.5 °F 29.3 °F 29.67 in ENE 10.0 mph 15.0 mph 88% 0.00 in
21:59 32.5 °F 29.3 °F 29.66 in ENE 8.0 mph 13.0 mph 88% 0.00 in
22:04 32.4 °F 29.5 °F 29.67 in NNE 7.0 mph 16.0 mph 89% 0.00 in
22:09 32.3 °F 29.4 °F 29.66 in NE 8.0 mph 16.0 mph 89% 0.00 in
22:14 32.3 °F 29.4 °F 29.66 in NNE 8.0 mph 14.0 mph 89% 0.00 in
22:19 32.2 °F 29.3 °F 29.66 in NNE 8.0 mph 14.0 mph 89% 0.00 in
22:24 32.1 °F 29.2 °F 29.66 in NE 7.0 mph 18.0 mph 89% 0.00 in
22:29 32.1 °F 29.2 °F 29.66 in NE 7.0 mph 18.0 mph 89% 0.00 in
22:34 32.1 °F 29.2 °F 29.66 in NNE 4.0 mph 16.0 mph 89% 0.00 in
22:39 32.0 °F 29.1 °F 29.66 in NNE 8.0 mph 13.0 mph 89% 0.00 in
22:44 32.1 °F 29.2 °F 29.65 in NNE 7.0 mph 13.0 mph 89% 0.00 in
22:49 32.0 °F 29.4 °F 29.65 in NNE 10.0 mph 12.0 mph 90% 0.00 in
22:54 32.0 °F 29.4 °F 29.66 in NNE 8.0 mph 15.0 mph 90% 0.00 in
22:59 31.9 °F 29.3 °F 29.65 in North 12.0 mph 12.0 mph 90% 0.00 in
23:04 31.9 °F 29.3 °F 29.65 in NNE 8.0 mph 12.0 mph 90% 0.00 in
23:09 31.7 °F 29.1 °F 29.65 in NNE 6.0 mph 13.0 mph 90% 0.00 in
23:14 31.7 °F 29.1 °F 29.66 in NNE 14.0 mph 16.0 mph 90% 0.00 in
23:19 31.7 °F 29.1 °F 29.66 in NNE 7.0 mph 16.0 mph 90% 0.00 in
23:24 31.7 °F 29.1 °F 29.66 in NNE 8.0 mph 22.0 mph 90% 0.00 in
23:29 31.7 °F 29.1 °F 29.66 in NNE 7.0 mph 22.0 mph 90% 0.00 in
23:34 31.6 °F 29.0 °F 29.66 in NNE 8.0 mph 18.0 mph 90% 0.00 in
23:39 31.6 °F 29.0 °F 29.67 in NNE 9.0 mph 18.0 mph 90% 0.00 in
23:44 31.6 °F 29.0 °F 29.67 in NNE 8.0 mph 13.0 mph 90% 0.00 in
23:49 31.5 °F 28.9 °F 29.67 in NNE 8.0 mph 17.0 mph 90% 0.00 in
23:54 31.4 °F 28.8 °F 29.68 in NE 11.0 mph 13.0 mph 90% 0.00 in
23:59 31.4 °F 28.8 °F 29.68 in NNE 9.0 mph 14.0 mph 90% 0.00 in
Buffalo, New York, USA
Compliments of Weather Underground - 2.25 mb